Rushville, IL

5:02 AM CDT on July 07, 2015 (GMT -0500)
APRSWXNET | | Change Station
CLOSE
Current Station
Personal Weather Station
Location: Bader, IL
Elevation: 649 ft
Nearby Weather Stations
Active Advisory: Flood Warning

Elev 649 ft 40.14 °N, 90.42 °W | Updated 34 minutes ago

Rain
Rain
71 °F
Feels Like 71 °F
N
0
Wind Variable Wind from WSW
Gusts 4.0 mph

Today
High -- | Low -- °F
--% Chance of Precip.
Yesterday
High -- | Low -- °F
Precip. -- in
5:39 AM 8:34 PM
Waning Gibbous, 66% visible
Pressure 29.95 in
Visibility 4.0 miles
Clouds Overcast 1000 ft
Dew Point 71 °F
Humidity 99%
Rainfall in
Snow Depth Not available.
UV 0 out of 12
Pollen 4.10 out of 12
Air Quality Not available.
Flu Activity Not available.
METAR KMQB 070955Z AUTO 35007KT 4SM -RA OVC010 18/17 A2995 RMK AO2 T01750170

More Conditions Fewer Conditions

Pressure 29.95 in
Visibility 4.0 miles
Clouds Overcast 1000 ft
Dew Point 71 °F
Humidity 99%
Rainfall in
Snow Depth Not available.
UV 0 out of 12
Pollen 4.10 out of 12
Air Quality Not available.
Flu Activity Not available.
METAR KMQB 070955Z AUTO 35007KT 4SM -RA OVC010 18/17 A2995 RMK AO2 T01750170

More Conditions Fewer Conditions

10-Day Weather Forecast

×

Almanac

Astronomy

Jul. 07, 2015 Rise Set
Actual Time
Civil Twilight
Nautical Twilight
Astronomical Twilight
Moon
Length of Visible Light
Length of Day
Tomorrow will be .
, % of the Moon is Illuminated

Today's Extremes

State Highs State Lows

Community

WunderPhotos

Upload Photos

1,835,760 photos uploaded!

WunderBlogs® & News

Nearby

Air Quality

  Air Quality AQ Index Pollutant
Not available.

Snow Depth

Station Depth Elevation

Earthquake Activity

City Distance Mag. Time & Date
Minimum magnitude displayed is 2.5.

Coastal Water Temperatures

Place Temperature

Stations

Nearby Weather Stations

Station Location Temp. Windchill Dew Point Humidity Wind Precip. Elev Updated Type
                   
Flood Warning
Statement as of 8:35 PM CDT on July 06, 2015

The Flood Warning continues for
the Illinois River at Beardstown.
* Until further notice.
* At 745 PM Monday the stage was 27.6 feet.
* Flood stage is 14.0 feet.
* Moderate flooding is occurring and moderate flooding is forecast.
* Forecast... the river will continue to fall to a stage of 26.6 feet
by Wednesday morning.
* Impact... at 28.0 feet... portions of Route 100 are closed due to
floodwaters. When down, the bnsf Railroad bridge across the
Illinois River acts as dam. Big Lake levee is overtopped.



                  Fld observed forecast 6am
location stg stg day time Tue Wed Thu

Illinois River
Beardstown 14 27.6 Mon 8 PM 27.3 26.6 25.9



Lat... Lon 4018 9023 4012 9017 4008 9037 3999 9046
      3999 9058 4015 9043

Smith